Time;durP1;ratioP1;P1;durP2;ratioP2;P2;SDS_P1;SDS_P2;PMS_P1;PMS_P2;Temp;Humidity;BMP_temperature;BMP_pressure;BME280_temperature;BME280_humidity;BME280_pressure;Samples;Min_cycle;Max_cycle;Signal;HPM_P1;HPM_P2
2024/02/14 06:59:34;;;;;;;;;;;;;;;6.53;100.00;100011.70;1822858;77;20140;-68
2024/02/14 07:02:01;;;;;;;;;;;;;;;6.53;100.00;100019.91;1792820;79;20131;-69
2024/02/14 07:04:27;;;;;;;;;;;;;;;6.52;100.00;100016.48;1744104;81;20099;-71
2024/02/14 07:06:53;;;;;;;;;;;;;;;6.54;100.00;100014.68;1739957;81;20134;-68
2024/02/14 09:05:16;;;;;;;;;;;;;;;7.33;100.00;100075.28;1771580;79;20126;-79
2024/02/14 09:07:44;;;;;;;;;;;;;;;7.33;100.00;100080.00;1766721;80;20142;-74
2024/02/14 09:10:12;;;;;;;;;;;;;;;7.30;100.00;100077.99;1781591;79;20128;-75
2024/02/14 09:12:41;;;;;;;;;;;;;;;7.28;100.00;100081.09;1774706;79;20135;-76
2024/02/14 09:15:08;;;;;;;;;;;;;;;7.27;100.00;100093.20;1783563;80;20423;-75
2024/02/14 09:17:35;;;;;;;;;;;;;;;7.25;100.00;100085.95;1778783;80;20108;-80
2024/02/14 09:20:01;;;;;;;;;;;;;;;7.26;100.00;100090.23;1779190;80;20429;-77
2024/02/14 09:22:28;;;;;;;;;;;;;;;7.25;100.00;100081.22;1783871;80;20386;-76
2024/02/14 09:24:56;;;;;;;;;;;;;;;7.24;100.00;100075.66;1776819;80;20092;-69
2024/02/14 09:27:24;;;;;;;;;;;;;;;7.25;100.00;100083.36;1781056;80;20092;-80
2024/02/14 09:29:51;;;;;;;;;;;;;;;7.29;100.00;100087.51;1780543;80;20120;-73
2024/02/14 09:32:18;;;;;;;;;;;;;;;7.30;100.00;100094.37;1752677;80;20125;-79
2024/02/14 09:34:45;;;;;;;;;;;;;;;7.28;100.00;100087.13;1741411;81;20114;-71
2024/02/14 09:37:11;;;;;;;;;;;;;;;7.29;100.00;100087.51;1779612;80;20135;-71
2024/02/14 09:39:38;;;;;;;;;;;;;;;7.27;100.00;100089.32;1781634;80;20145;-69
2024/02/14 09:42:08;;;;;;;;;;;;;;;7.27;100.00;100089.32;1779959;80;20112;-67
2024/02/14 09:44:34;;;;;;;;;;;;;;;7.26;100.00;100093.27;1776263;80;20412;-72
2024/02/14 09:47:01;;;;;;;;;;;;;;;7.25;100.00;100089.84;1775702;80;20394;-73
2024/02/14 09:49:27;;;;;;;;;;;;;;;7.25;100.00;100093.72;1783019;80;20402;-69
2024/02/14 09:51:53;;;;;;;;;;;;;;;7.23;100.00;100097.28;1741582;80;20159;-71
2024/02/14 09:54:20;;;;;;;;;;;;;;;7.20;100.00;100095.66;1772594;80;20155;-70
2024/02/14 09:56:53;;;;;;;;;;;;;;;7.18;100.00;100096.20;1781662;80;20147;-71
2024/02/14 10:24:27;;;;;;;;;;;;;;;7.36;100.00;100101.05;1753907;82;20106;-68
2024/02/14 10:26:54;;;;;;;;;;;;;;;7.38;100.00;100100.53;1755909;82;20273;-75
2024/02/14 10:29:20;;;;;;;;;;;;;;;7.35;100.00;100105.39;1755988;82;20436;-71
2024/02/14 10:31:46;;;;;;;;;;;;;;;7.33;100.00;100104.61;1748225;82;20127;-77
2024/02/14 10:34:13;;;;;;;;;;;;;;;7.31;100.00;100101.69;1747127;82;20106;-73
2024/02/14 10:41:43;;;;;;;;;;;;;;;7.36;100.00;100114.00;1726767;82;20162;-71
2024/02/14 10:44:11;;;;;;;;;;;;;;;7.36;100.00;100112.25;1742756;81;20162;-70
2024/02/14 10:46:37;;;;;;;;;;;;;;;7.34;100.00;100115.81;1758456;81;20207;-67
2024/02/14 10:49:04;;;;;;;;;;;;;;;7.34;100.00;100120.55;1764853;81;20130;-74
2024/02/14 10:51:32;;;;;;;;;;;;;;;7.37;100.00;100122.16;1766051;81;20125;-70
2024/02/14 10:53:59;;;;;;;;;;;;;;;7.38;100.00;100123.84;1766404;81;20110;-69
2024/02/14 10:56:27;;;;;;;;;;;;;;;7.38;100.00;100121.71;1764931;81;20404;-68
2024/02/14 10:58:57;;;;;;;;;;;;;;;7.38;100.00;100125.59;1752091;82;20130;-72
2024/02/14 11:01:26;;;;;;;;;;;;;;;7.38;100.00;100126.89;1755983;82;20393;-72
2024/02/14 11:03:52;;;;;;;;;;;;;;;7.35;100.00;100122.68;1740581;82;20162;-76
2024/02/14 11:06:22;;;;;;;;;;;;;;;7.33;100.00;100119.31;1734716;82;20152;-77
2024/02/14 11:09:07;;;;;;;;;;;;;;;7.31;100.00;100120.67;1741674;82;20164;-70
2024/02/14 11:11:33;;;;;;;;;;;;;;;7.33;100.00;100118.86;1746120;82;20138;-70
2024/02/14 11:13:59;;;;;;;;;;;;;;;7.36;100.00;100118.73;1756536;82;20422;-76
2024/02/14 11:16:27;;;;;;;;;;;;;;;7.37;100.00;100116.98;1740385;82;20104;-68
2024/02/14 11:19:10;;;;;;;;;;;;;;;7.38;100.00;100120.42;1752366;81;20102;-75
2024/02/14 11:21:46;;;;;;;;;;;;;;;7.39;100.00;100124.69;1733659;81;20133;-68
2024/02/14 11:24:11;;;;;;;;;;;;;;;7.39;100.00;100122.95;1740299;82;20420;-68
2024/02/14 11:26:48;;;;;;;;;;;;;;;7.41;100.00;100123.72;1754182;81;20114;-73
2024/02/14 11:31:48;;;;;;;;;;;;;;;7.35;100.00;100132.59;1741124;82;20740;-70
2024/02/14 11:34:14;;;;;;;;;;;;;;;7.32;100.00;100129.28;1751149;82;20122;-67
2024/02/14 11:36:45;;;;;;;;;;;;;;;7.30;100.00;100124.16;1740527;81;20168;-71
2024/02/14 11:39:14;;;;;;;;;;;;;;;7.34;100.00;100132.65;1743976;81;20193;-72
2024/02/14 11:41:47;;;;;;;;;;;;;;;7.39;100.00;100135.05;1751244;81;20190;-73
2024/02/14 11:44:14;;;;;;;;;;;;;;;7.39;100.00;100128.58;1741051;81;20182;-72
2024/02/14 11:46:41;;;;;;;;;;;;;;;7.38;100.00;100132.08;1752790;80;20566;-69
2024/02/14 11:49:16;;;;;;;;;;;;;;;7.38;100.00;100126.89;1748682;81;20138;-71
2024/02/14 11:51:45;;;;;;;;;;;;;;;7.41;100.00;100126.77;1751080;81;20165;-72
2024/02/14 11:54:17;;;;;;;;;;;;;;;7.43;100.00;100135.31;1748453;80;20148;-70
2024/02/14 11:56:45;;;;;;;;;;;;;;;7.42;100.00;100139.66;1750617;82;20133;-76
2024/02/14 11:59:19;;;;;;;;;;;;;;;7.42;100.00;100138.81;1749204;81;20157;-66
2024/02/14 12:01:46;;;;;;;;;;;;;;;7.39;100.00;100132.47;1743027;81;20173;-69
2024/02/14 12:04:13;;;;;;;;;;;;;;;7.35;100.00;100139.52;1753995;81;20166;-69
2024/02/14 12:06:41;;;;;;;;;;;;;;;7.34;100.00;100139.97;1746087;80;20300;-66
2024/02/14 12:09:10;;;;;;;;;;;;;;;7.36;100.00;100142.50;1748276;81;20172;-77
2024/02/14 12:11:38;;;;;;;;;;;;;;;7.40;100.00;100141.47;1744159;80;20543;-83
2024/02/14 12:14:08;;;;;;;;;;;;;;;7.44;100.00;100144.78;1752592;81;20395;-73
2024/02/14 12:16:37;;;;;;;;;;;;;;;7.43;100.00;100144.39;1756408;81;20115;-79
2024/02/14 12:19:15;;;;;;;;;;;;;;;7.44;100.00;100148.66;1755820;80;21004;-73
2024/02/14 12:49:38;;;;;;;;;;;;;;;6.99;100.00;100173.77;1754604;81;20472;-67
2024/02/14 12:52:05;;;;;;;;;;;;;;;6.96;100.00;100181.64;1727271;81;20127;-69
2024/02/14 12:54:41;;;;;;;;;;;;;;;6.94;100.00;100186.04;1758341;81;20129;-69
2024/02/14 12:57:08;;;;;;;;;;;;;;;6.93;100.00;100186.94;1759936;81;20107;-70
2024/02/14 14:13:30;;;;;;;;;;;;;;;6.59;100.00;100278.39;1754857;82;20396;-69
2024/02/14 14:15:55;;;;;;;;;;;;;;;6.55;100.00;100283.28;1738796;82;20133;-69
2024/02/14 14:18:22;;;;;;;;;;;;;;;6.51;100.00;100285.58;1745251;82;20103;-73
2024/02/14 14:20:49;;;;;;;;;;;;;;;6.48;100.00;100282.65;1748431;80;20123;-72
2024/02/14 14:23:15;;;;;;;;;;;;;;;6.47;100.00;100287.87;1741085;82;20381;-72
2024/02/14 14:25:44;;;;;;;;;;;;;;;6.44;100.00;100290.12;1725315;82;20150;-74
2024/02/14 14:28:10;;;;;;;;;;;;;;;6.44;100.00;100293.16;1729332;82;20431;-74
2024/02/14 14:30:36;;;;;;;;;;;;;;;6.42;100.00;100299.67;1739662;82;20094;-72
2024/02/14 14:33:03;;;;;;;;;;;;;;;6.39;100.00;100293.34;1758286;82;20110;-71
2024/02/14 14:35:33;;;;;;;;;;;;;;;6.36;100.00;100297.33;1758300;82;20127;-70
2024/02/14 14:37:58;;;;;;;;;;;;;;;6.33;100.00;100307.33;1716265;82;20176;-71
2024/02/14 14:40:24;;;;;;;;;;;;;;;6.30;100.00;100307.87;1688947;84;20135;-68
2024/02/14 14:42:51;;;;;;;;;;;;;;;6.27;100.00;100310.12;1654790;84;20368;-71
2024/02/14 14:45:17;;;;;;;;;;;;;;;6.24;100.00;100311.96;1655208;85;20120;-70
2024/02/14 14:47:43;;;;;;;;;;;;;;;6.21;100.00;100315.94;1636028;86;20157;-71
2024/02/14 14:50:11;;;;;;;;;;;;;;;6.16;100.00;100315.25;1705743;84;20121;-70
2024/02/14 14:52:38;;;;;;;;;;;;;;;6.12;100.00;100317.53;1697053;84;20110;-70
2024/02/14 14:55:05;;;;;;;;;;;;;;;6.11;100.00;100317.98;1721580;83;20179;-71
2024/02/14 14:57:31;;;;;;;;;;;;;;;6.09;100.00;100324.94;1722501;83;20126;-72
2024/02/14 14:59:57;;;;;;;;;;;;;;;6.08;100.00;100331.01;1715047;83;20569;-73
2024/02/14 15:02:24;;;;;;;;;;;;;;;6.07;100.00;100342.69;1695963;83;20101;-70
